Forestdale, Massachusetts
Current Conditions -  °F | °C
As of 11:35 AM on Sunday 25 Jan 2015 (Local Time) from KFMH Reporting Station
Clear Clear  
Wind Chill: 29°   Ceiling: Unl
Heat Index: 39°   Visibility: 10mi
Dew Point: 28°   Wind: 21mph
Humidity: 65%   Direction: 280°W
Pressure: 29.62"   Gusts: 32mph
Location:  41.69°N, 70.51°W
Report Text: KFMH 251635Z AUTO 28018G28KT 10SM CLR 04/M02 A2962 RMK AO2
Loading
Personal Weather Stations






























Interactive Weather Map New forecast layout! Learn more

10-Day Weather Forecast

Advertisements
Track Severe Weather on mobile